sensor_id;sensor_type;location;lat;lon;timestamp;pressure;altitude;pressure_sealevel;temperature;humidity
4410;BME280;2218;51.408;7.208;2022-09-09T00:02:19;99059.56;;;23.94;50.62
4410;BME280;2218;51.408;7.208;2022-09-09T00:04:58;99056.75;;;23.95;50.50
4410;BME280;2218;51.408;7.208;2022-09-09T00:07:40;99054.41;;;23.92;50.39
4410;BME280;2218;51.408;7.208;2022-09-09T00:10:23;99049.09;;;23.92;50.40
4410;BME280;2218;51.408;7.208;2022-09-09T00:13:02;99055.25;;;23.93;50.40
4410;BME280;2218;51.408;7.208;2022-09-09T00:15:38;99047.28;;;23.93;50.23
4410;BME280;2218;51.408;7.208;2022-09-09T00:18:20;99050.06;;;23.91;50.75
4410;BME280;2218;51.408;7.208;2022-09-09T00:20:58;99051.75;;;23.92;50.55
4410;BME280;2218;51.408;7.208;2022-09-09T00:23:33;99054.41;;;23.92;50.34
4410;BME280;2218;51.408;7.208;2022-09-09T00:26:11;99043.09;;;23.90;50.86
4410;BME280;2218;51.408;7.208;2022-09-09T00:28:48;99040.44;;;23.90;50.35
4410;BME280;2218;51.408;7.208;2022-09-09T00:31:25;99037.78;;;23.90;50.36
4410;BME280;2218;51.408;7.208;2022-09-09T00:33:53;99041.28;;;23.91;50.44
4410;BME280;2218;51.408;7.208;2022-09-09T00:36:24;99034.31;;;23.90;50.43
4410;BME280;2218;51.408;7.208;2022-09-09T00:38:58;99038.78;;;23.89;50.66
4410;BME280;2218;51.408;7.208;2022-09-09T00:41:42;99030.00;;;23.89;50.77
4410;BME280;2218;51.408;7.208;2022-09-09T00:44:30;99030.00;;;23.89;50.96
4410;BME280;2218;51.408;7.208;2022-09-09T00:47:14;99028.19;;;23.89;50.61
4410;BME280;2218;51.408;7.208;2022-09-09T00:50:00;99031.81;;;23.88;50.87
4410;BME280;2218;51.408;7.208;2022-09-09T00:52:37;99037.13;;;23.88;50.67
4410;BME280;2218;51.408;7.208;2022-09-09T00:55:16;99027.50;;;23.87;50.85
4410;BME280;2218;51.408;7.208;2022-09-09T00:57:51;99023.16;;;23.86;50.47
4410;BME280;2218;51.408;7.208;2022-09-09T01:00:23;99025.81;;;23.86;50.78
4410;BME280;2218;51.408;7.208;2022-09-09T01:03:06;99016.19;;;23.85;50.98
4410;BME280;2218;51.408;7.208;2022-09-09T01:05:46;99023.16;;;23.86;50.57
4410;BME280;2218;51.408;7.208;2022-09-09T01:08:40;99027.50;;;23.87;51.00
4410;BME280;2218;51.408;7.208;2022-09-09T01:11:16;99023.16;;;23.86;50.52
4410;BME280;2218;51.408;7.208;2022-09-09T01:13:56;99021.50;;;23.85;50.86
4410;BME280;2218;51.408;7.208;2022-09-09T01:16:31;99024.16;;;23.85;50.54
4410;BME280;2218;51.408;7.208;2022-09-09T01:19:01;99021.50;;;23.85;50.64
4410;BME280;2218;51.408;7.208;2022-09-09T01:21:43;99024.31;;;23.84;50.59
4410;BME280;2218;51.408;7.208;2022-09-09T01:24:27;99024.31;;;23.84;50.38
4410;BME280;2218;51.408;7.208;2022-09-09T01:27:16;99035.75;;;23.84;50.38
4410;BME280;2218;51.408;7.208;2022-09-09T01:29:46;99032.28;;;23.84;50.58
4410;BME280;2218;51.408;7.208;2022-09-09T01:32:42;99023.47;;;23.83;50.41
4410;BME280;2218;51.408;7.208;2022-09-09T01:35:38;99026.13;;;23.83;50.66
4410;BME280;2218;51.408;7.208;2022-09-09T01:38:07;99032.28;;;23.84;50.79
4410;BME280;2218;51.408;7.208;2022-09-09T01:40:35;99027.13;;;23.82;50.58
4410;BME280;2218;51.408;7.208;2022-09-09T01:43:04;99023.63;;;23.82;50.72
4410;BME280;2218;51.408;7.208;2022-09-09T01:45:33;99020.13;;;23.81;50.79
4410;BME280;2218;51.408;7.208;2022-09-09T01:48:01;99023.63;;;23.82;51.05
4410;BME280;2218;51.408;7.208;2022-09-09T01:50:41;99025.44;;;23.81;50.66
4410;BME280;2218;51.408;7.208;2022-09-09T01:53:08;99023.78;;;23.80;50.66
4410;BME280;2218;51.408;7.208;2022-09-09T01:55:41;99014.81;;;23.81;50.97
4410;BME280;2218;51.408;7.208;2022-09-09T01:58:32;99019.28;;;23.81;50.72
4410;BME280;2218;51.408;7.208;2022-09-09T02:01:12;99022.78;;;23.81;51.06
4410;BME280;2218;51.408;7.208;2022-09-09T02:03:49;99015.81;;;23.80;50.94
4410;BME280;2218;51.408;7.208;2022-09-09T02:06:28;99019.28;;;23.81;50.87
4410;BME280;2218;51.408;7.208;2022-09-09T02:09:07;99018.47;;;23.80;50.99
4410;BME280;2218;51.408;7.208;2022-09-09T02:11:41;99014.16;;;23.79;50.93
4410;BME280;2218;51.408;7.208;2022-09-09T02:14:25;99016.81;;;23.79;50.95
4410;BME280;2218;51.408;7.208;2022-09-09T02:16:59;99007.03;;;23.80;50.88
4410;BME280;2218;51.408;7.208;2022-09-09T02:19:46;99016.81;;;23.79;50.61
4410;BME280;2218;51.408;7.208;2022-09-09T02:22:26;99022.13;;;23.79;50.63
4410;BME280;2218;51.408;7.208;2022-09-09T02:24:58;99023.09;;;23.78;50.87
4410;BME280;2218;51.408;7.208;2022-09-09T02:27:29;99027.41;;;23.79;50.72
4410;BME280;2218;51.408;7.208;2022-09-09T02:30:01;99022.28;;;23.78;51.19
4410;BME280;2218;51.408;7.208;2022-09-09T02:32:40;99026.75;;;23.77;50.92
4410;BME280;2218;51.408;7.208;2022-09-09T02:35:15;99029.41;;;23.77;50.88
4410;BME280;2218;51.408;7.208;2022-09-09T02:37:45;99029.41;;;23.77;50.89
4410;BME280;2218;51.408;7.208;2022-09-09T02:40:14;99028.41;;;23.78;50.87
4410;BME280;2218;51.408;7.208;2022-09-09T02:42:48;99040.03;;;23.77;50.56
4410;BME280;2218;51.408;7.208;2022-09-09T02:45:23;99033.00;;;23.76;51.07
4410;BME280;2218;51.408;7.208;2022-09-09T02:47:59;99026.88;;;23.76;50.95
4410;BME280;2218;51.408;7.208;2022-09-09T02:50:33;99027.72;;;23.76;51.00
4410;BME280;2218;51.408;7.208;2022-09-09T02:53:10;99022.41;;;23.76;50.77
4410;BME280;2218;51.408;7.208;2022-09-09T02:55:47;99020.75;;;23.75;50.65
4410;BME280;2218;51.408;7.208;2022-09-09T02:58:18;99026.06;;;23.75;50.92
4410;BME280;2218;51.408;7.208;2022-09-09T03:00:56;99025.06;;;23.76;51.01
4410;BME280;2218;51.408;7.208;2022-09-09T03:03:27;99021.56;;;23.76;50.90
4410;BME280;2218;51.408;7.208;2022-09-09T03:05:55;99018.91;;;23.76;50.62
4410;BME280;2218;51.408;7.208;2022-09-09T03:08:23;99014.59;;;23.75;50.75
4410;BME280;2218;51.408;7.208;2022-09-09T03:10:50;99012.94;;;23.73;51.11
4410;BME280;2218;51.408;7.208;2022-09-09T03:13:20;99010.13;;;23.75;50.80
4410;BME280;2218;51.408;7.208;2022-09-09T03:15:48;99014.59;;;23.75;50.93
4410;BME280;2218;51.408;7.208;2022-09-09T03:18:19;99012.13;;;23.73;51.27
4410;BME280;2218;51.408;7.208;2022-09-09T03:20:49;99001.50;;;23.73;50.77
4410;BME280;2218;51.408;7.208;2022-09-09T03:23:18;99000.69;;;23.72;50.64
4410;BME280;2218;51.408;7.208;2022-09-09T03:25:47;98998.84;;;23.73;50.87
4410;BME280;2218;51.408;7.208;2022-09-09T03:28:16;98996.19;;;23.73;51.00
4410;BME280;2218;51.408;7.208;2022-09-09T03:30:43;98992.72;;;23.72;50.80
4410;BME280;2218;51.408;7.208;2022-09-09T03:33:10;98994.53;;;23.72;50.98
4410;BME280;2218;51.408;7.208;2022-09-09T03:35:45;98990.88;;;23.73;51.25
4410;BME280;2218;51.408;7.208;2022-09-09T03:38:15;98993.69;;;23.71;51.09
4410;BME280;2218;51.408;7.208;2022-09-09T03:40:50;98991.88;;;23.72;51.02
4410;BME280;2218;51.408;7.208;2022-09-09T03:43:17;98999.84;;;23.72;50.59
4410;BME280;2218;51.408;7.208;2022-09-09T03:45:46;98999.84;;;23.72;51.13
4410;BME280;2218;51.408;7.208;2022-09-09T03:48:15;98997.19;;;23.72;51.15
4410;BME280;2218;51.408;7.208;2022-09-09T03:50:46;99009.59;;;23.71;50.94
4410;BME280;2218;51.408;7.208;2022-09-09T03:53:15;99001.63;;;23.71;50.86
4410;BME280;2218;51.408;7.208;2022-09-09T03:55:44;99008.75;;;23.71;51.16
4410;BME280;2218;51.408;7.208;2022-09-09T03:58:12;98996.50;;;23.70;51.12
4410;BME280;2218;51.408;7.208;2022-09-09T04:00:40;98999.16;;;23.70;50.72
4410;BME280;2218;51.408;7.208;2022-09-09T04:03:11;99017.72;;;23.70;50.97
4410;BME280;2218;51.408;7.208;2022-09-09T04:05:40;99012.41;;;23.70;50.68
4410;BME280;2218;51.408;7.208;2022-09-09T04:08:09;99015.06;;;23.70;51.17
4410;BME280;2218;51.408;7.208;2022-09-09T04:10:37;99007.94;;;23.70;50.66
4410;BME280;2218;51.408;7.208;2022-09-09T04:13:05;99011.56;;;23.69;50.91
4410;BME280;2218;51.408;7.208;2022-09-09T04:15:32;99008.94;;;23.69;51.20
4410;BME280;2218;51.408;7.208;2022-09-09T04:18:01;99008.75;;;23.71;50.68
4410;BME280;2218;51.408;7.208;2022-09-09T04:20:28;99012.41;;;23.70;50.91
4410;BME280;2218;51.408;7.208;2022-09-09T04:22:56;99007.09;;;23.70;50.77
4410;BME280;2218;51.408;7.208;2022-09-09T04:25:24;99011.56;;;23.69;50.64
4410;BME280;2218;51.408;7.208;2022-09-09T04:27:53;99010.75;;;23.69;51.11
4410;BME280;2218;51.408;7.208;2022-09-09T04:30:21;99010.75;;;23.69;51.23
4410;BME280;2218;51.408;7.208;2022-09-09T04:32:48;99009.91;;;23.68;50.93
4410;BME280;2218;51.408;7.208;2022-09-09T04:35:16;99016.06;;;23.69;50.79
4410;BME280;2218;51.408;7.208;2022-09-09T04:37:44;99017.03;;;23.68;51.21
4410;BME280;2218;51.408;7.208;2022-09-09T04:40:12;99009.91;;;23.68;51.21
4410;BME280;2218;51.408;7.208;2022-09-09T04:42:40;99016.22;;;23.67;50.79
4410;BME280;2218;51.408;7.208;2022-09-09T04:45:11;99010.03;;;23.67;51.24
4410;BME280;2218;51.408;7.208;2022-09-09T04:47:40;99007.41;;;23.67;51.02
4410;BME280;2218;51.408;7.208;2022-09-09T04:50:08;99019.69;;;23.68;51.20
4410;BME280;2218;51.408;7.208;2022-09-09T04:52:36;99014.38;;;23.68;51.22
4410;BME280;2218;51.408;7.208;2022-09-09T04:55:04;99017.03;;;23.68;51.21
4410;BME280;2218;51.408;7.208;2022-09-09T04:57:31;99018.88;;;23.67;50.98
4410;BME280;2218;51.408;7.208;2022-09-09T05:00:00;99016.22;;;23.67;51.11
4410;BME280;2218;51.408;7.208;2022-09-09T05:02:36;99012.69;;;23.67;51.16
4410;BME280;2218;51.408;7.208;2022-09-09T05:05:05;99016.34;;;23.66;50.97
4410;BME280;2218;51.408;7.208;2022-09-09T05:07:33;99009.22;;;23.66;51.04
4410;BME280;2218;51.408;7.208;2022-09-09T05:09:59;99015.50;;;23.65;51.24
4410;BME280;2218;51.408;7.208;2022-09-09T05:12:26;99013.69;;;23.66;51.00
4410;BME280;2218;51.408;7.208;2022-09-09T05:14:55;99022.47;;;23.66;51.27
4410;BME280;2218;51.408;7.208;2022-09-09T05:17:23;99022.47;;;23.66;51.00
4410;BME280;2218;51.408;7.208;2022-09-09T05:19:50;99013.69;;;23.66;51.17
4410;BME280;2218;51.408;7.208;2022-09-09T05:22:19;99016.34;;;23.66;51.23
4410;BME280;2218;51.408;7.208;2022-09-09T05:24:48;99015.50;;;23.65;51.18
4410;BME280;2218;51.408;7.208;2022-09-09T05:27:17;99009.38;;;23.65;51.26
4410;BME280;2218;51.408;7.208;2022-09-09T05:29:47;99006.72;;;23.65;51.16
4410;BME280;2218;51.408;7.208;2022-09-09T05:32:14;99015.50;;;23.65;51.29
4410;BME280;2218;51.408;7.208;2022-09-09T05:34:47;99014.69;;;23.65;50.96
4410;BME280;2218;51.408;7.208;2022-09-09T05:37:14;99008.53;;;23.64;51.37
4410;BME280;2218;51.408;7.208;2022-09-09T05:39:42;99020.81;;;23.65;50.84
4410;BME280;2218;51.408;7.208;2022-09-09T05:42:09;99020.00;;;23.65;51.04
4410;BME280;2218;51.408;7.208;2022-09-09T05:44:37;99018.31;;;23.64;51.19
4410;BME280;2218;51.408;7.208;2022-09-09T05:47:04;99016.50;;;23.64;51.34
4410;BME280;2218;51.408;7.208;2022-09-09T05:49:31;99019.16;;;23.64;50.81
4410;BME280;2218;51.408;7.208;2022-09-09T05:52:01;99020.00;;;23.65;50.93
4410;BME280;2218;51.408;7.208;2022-09-09T05:54:29;99022.81;;;23.63;51.07
4410;BME280;2218;51.408;7.208;2022-09-09T05:56:56;99028.09;;;23.63;51.15
4410;BME280;2218;51.408;7.208;2022-09-09T05:59:23;99017.34;;;23.65;51.18
4410;BME280;2218;51.408;7.208;2022-09-09T06:01:53;99013.56;;;23.67;51.38
4410;BME280;2218;51.408;7.208;2022-09-09T06:04:25;99019.38;;;23.71;51.32
4410;BME280;2218;51.408;7.208;2022-09-09T06:06:52;99016.59;;;23.72;51.09
4410;BME280;2218;51.408;7.208;2022-09-09T06:09:22;99017.41;;;23.73;51.79
4410;BME280;2218;51.408;7.208;2022-09-09T06:11:49;99022.56;;;23.75;51.38
4410;BME280;2218;51.408;7.208;2022-09-09T06:14:16;99017.25;;;23.75;51.71
4410;BME280;2218;51.408;7.208;2022-09-09T06:16:46;99021.56;;;23.76;51.23
4410;BME280;2218;51.408;7.208;2022-09-09T06:19:18;99022.41;;;23.76;51.10
4410;BME280;2218;51.408;7.208;2022-09-09T06:21:47;99019.63;;;23.78;51.75
4410;BME280;2218;51.408;7.208;2022-09-09T06:24:15;99022.94;;;23.80;51.12
4410;BME280;2218;51.408;7.208;2022-09-09T06:26:46;99021.13;;;23.80;51.82
4410;BME280;2218;51.408;7.208;2022-09-09T06:29:19;99025.16;;;23.84;51.22
4410;BME280;2218;51.408;7.208;2022-09-09T06:31:45;99021.50;;;23.85;51.41
4410;BME280;2218;51.408;7.208;2022-09-09T06:34:15;99016.19;;;23.85;51.38
4410;BME280;2218;51.408;7.208;2022-09-09T06:36:47;99023.16;;;23.86;51.84
4410;BME280;2218;51.408;7.208;2022-09-09T06:39:14;99020.50;;;23.86;51.51
4410;BME280;2218;51.408;7.208;2022-09-09T06:41:42;99019.53;;;23.87;51.60
4410;BME280;2218;51.408;7.208;2022-09-09T06:44:23;99019.53;;;23.87;51.46
4410;BME280;2218;51.408;7.208;2022-09-09T06:46:52;99024.84;;;23.87;51.33
4410;BME280;2218;51.408;7.208;2022-09-09T06:49:20;99021.88;;;23.90;51.70
4410;BME280;2218;51.408;7.208;2022-09-09T06:51:47;99024.53;;;23.90;51.11
4410;BME280;2218;51.408;7.208;2022-09-09T06:54:16;99019.91;;;23.92;52.04
4410;BME280;2218;51.408;7.208;2022-09-09T06:56:44;99012.78;;;23.93;51.86
4410;BME280;2218;51.408;7.208;2022-09-09T06:59:18;99019.38;;;23.89;52.26
4410;BME280;2218;51.408;7.208;2022-09-09T07:01:48;99024.31;;;23.84;51.83
4410;BME280;2218;51.408;7.208;2022-09-09T07:04:17;99021.91;;;23.72;52.38
4410;BME280;2218;51.408;7.208;2022-09-09T07:06:46;99026.38;;;23.72;52.32
4410;BME280;2218;51.408;7.208;2022-09-09T07:09:20;99029.47;;;23.67;52.26
4410;BME280;2218;51.408;7.208;2022-09-09T07:11:51;99039.09;;;23.68;52.48
4410;BME280;2218;51.408;7.208;2022-09-09T07:14:21;99031.97;;;23.69;52.18
4410;BME280;2218;51.408;7.208;2022-09-09T07:16:54;99032.25;;;23.66;52.55
4410;BME280;2218;51.408;7.208;2022-09-09T07:19:21;99032.84;;;23.60;52.24
4410;BME280;2218;51.408;7.208;2022-09-09T07:21:51;99043.03;;;23.64;52.45
4410;BME280;2218;51.408;7.208;2022-09-09T07:24:21;99039.22;;;23.67;52.05
4410;BME280;2218;51.408;7.208;2022-09-09T07:26:48;99039.81;;;23.61;52.71
4410;BME280;2218;51.408;7.208;2022-09-09T07:29:16;99036.47;;;23.59;52.04
4410;BME280;2218;51.408;7.208;2022-09-09T07:31:43;99036.47;;;23.59;51.87
4410;BME280;2218;51.408;7.208;2022-09-09T07:34:14;99040.50;;;23.63;51.96
4410;BME280;2218;51.408;7.208;2022-09-09T07:36:41;99042.13;;;23.73;51.31
4410;BME280;2218;51.408;7.208;2022-09-09T07:39:13;99045.00;;;23.80;51.33
4410;BME280;2218;51.408;7.208;2022-09-09T07:41:47;99043.94;;;23.73;51.42
4410;BME280;2218;51.408;7.208;2022-09-09T07:44:21;99047.72;;;23.70;51.50
4410;BME280;2218;51.408;7.208;2022-09-09T07:46:55;99046.22;;;23.68;51.88
4410;BME280;2218;51.408;7.208;2022-09-09T07:49:29;99044.78;;;23.73;51.48
4410;BME280;2218;51.408;7.208;2022-09-09T07:51:56;99044.94;;;23.72;51.48
4410;BME280;2218;51.408;7.208;2022-09-09T07:54:23;99050.69;;;23.67;51.92
4410;BME280;2218;51.408;7.208;2022-09-09T07:56:51;99046.50;;;23.65;51.41
4410;BME280;2218;51.408;7.208;2022-09-09T07:59:21;99045.09;;;23.61;51.63
4410;BME280;2218;51.408;7.208;2022-09-09T08:01:52;99043.75;;;23.57;51.83
4410;BME280;2218;51.408;7.208;2022-09-09T08:04:24;99044.06;;;23.54;52.46
4410;BME280;2218;51.408;7.208;2022-09-09T08:06:57;99056.31;;;23.55;52.12
4410;BME280;2218;51.408;7.208;2022-09-09T08:09:27;99063.00;;;23.59;51.86
4410;BME280;2218;51.408;7.208;2022-09-09T08:12:01;99058.25;;;23.62;51.87
4410;BME280;2218;51.408;7.208;2022-09-09T08:14:29;99055.31;;;23.65;51.85
4410;BME280;2218;51.408;7.208;2022-09-09T08:16:57;99054.72;;;23.62;51.73
4410;BME280;2218;51.408;7.208;2022-09-09T08:19:26;99053.06;;;23.61;51.72
4410;BME280;2218;51.408;7.208;2022-09-09T08:21:56;99061.44;;;23.66;51.14
4410;BME280;2218;51.408;7.208;2022-09-09T08:24:23;99048.19;;;23.66;51.54
4410;BME280;2218;51.408;7.208;2022-09-09T08:26:51;99051.81;;;23.65;50.91
4410;BME280;2218;51.408;7.208;2022-09-09T08:29:22;99051.00;;;23.64;51.00
4410;BME280;2218;51.408;7.208;2022-09-09T08:31:53;99055.13;;;23.67;51.28
4410;BME280;2218;51.408;7.208;2022-09-09T08:34:21;99050.69;;;23.67;50.88
4410;BME280;2218;51.408;7.208;2022-09-09T08:36:51;99060.78;;;23.64;51.00
4410;BME280;2218;51.408;7.208;2022-09-09T08:39:23;99060.78;;;23.64;50.48
4410;BME280;2218;51.408;7.208;2022-09-09T08:42:17;99056.13;;;23.66;50.64
4410;BME280;2218;51.408;7.208;2022-09-09T08:45:14;99061.44;;;23.66;50.79
4410;BME280;2218;51.408;7.208;2022-09-09T08:48:01;99057.97;;;23.65;50.62
4410;BME280;2218;51.408;7.208;2022-09-09T08:50:35;99060.16;;;23.70;50.34
4410;BME280;2218;51.408;7.208;2022-09-09T08:53:28;99047.88;;;23.69;50.12
4410;BME280;2218;51.408;7.208;2022-09-09T08:56:01;99053.19;;;23.69;50.00
4410;BME280;2218;51.408;7.208;2022-09-09T08:58:47;99049.56;;;23.70;50.31
4410;BME280;2218;51.408;7.208;2022-09-09T09:01:38;99050.53;;;23.69;49.83
4410;BME280;2218;51.408;7.208;2022-09-09T09:04:28;99065.47;;;23.70;49.55
4410;BME280;2218;51.408;7.208;2022-09-09T09:07:09;99064.63;;;23.69;49.91
4410;BME280;2218;51.408;7.208;2022-09-09T09:09:52;99067.44;;;23.68;49.33
4410;BME280;2218;51.408;7.208;2022-09-09T09:12:31;99064.63;;;23.69;49.76
4410;BME280;2218;51.408;7.208;2022-09-09T09:15:11;99065.47;;;23.70;49.42
4410;BME280;2218;51.408;7.208;2022-09-09T09:17:42;99060.16;;;23.70;49.65
4410;BME280;2218;51.408;7.208;2022-09-09T09:20:14;99068.81;;;23.72;49.50
4410;BME280;2218;51.408;7.208;2022-09-09T09:22:50;99063.34;;;23.73;49.24
4410;BME280;2218;51.408;7.208;2022-09-09T09:25:21;99069.66;;;23.72;49.51
4410;BME280;2218;51.408;7.208;2022-09-09T09:27:57;99072.44;;;23.71;49.50
4410;BME280;2218;51.408;7.208;2022-09-09T09:30:35;99074.97;;;23.72;49.30
4410;BME280;2218;51.408;7.208;2022-09-09T09:33:17;99070.78;;;23.70;49.39
4410;BME280;2218;51.408;7.208;2022-09-09T09:35:49;99070.78;;;23.70;49.31
4410;BME280;2218;51.408;7.208;2022-09-09T09:38:19;99068.81;;;23.72;49.37
4410;BME280;2218;51.408;7.208;2022-09-09T09:40:51;99059.16;;;23.71;49.17
4410;BME280;2218;51.408;7.208;2022-09-09T09:43:26;99069.78;;;23.71;49.36
4410;BME280;2218;51.408;7.208;2022-09-09T09:45:53;99083.03;;;23.71;49.30
4410;BME280;2218;51.408;7.208;2022-09-09T09:48:20;99073.25;;;23.71;49.33
4410;BME280;2218;51.408;7.208;2022-09-09T09:50:51;99074.13;;;23.72;48.83
4410;BME280;2218;51.408;7.208;2022-09-09T09:53:24;99075.78;;;23.73;48.72
4410;BME280;2218;51.408;7.208;2022-09-09T09:55:58;99074.41;;;23.69;49.06
4410;BME280;2218;51.408;7.208;2022-09-09T09:58:30;99070.09;;;23.68;49.15
4410;BME280;2218;51.408;7.208;2022-09-09T10:01:00;99081.66;;;23.67;48.51
4410;BME280;2218;51.408;7.208;2022-09-09T10:03:32;99076.94;;;23.61;48.71
4410;BME280;2218;51.408;7.208;2022-09-09T10:06:03;99080.59;;;23.60;48.81
4410;BME280;2218;51.408;7.208;2022-09-09T10:08:44;99073.19;;;23.63;49.24
4410;BME280;2218;51.408;7.208;2022-09-09T10:11:39;99076.38;;;23.67;48.65
4410;BME280;2218;51.408;7.208;2022-09-09T10:14:20;99071.75;;;23.69;48.75
4410;BME280;2218;51.408;7.208;2022-09-09T10:17:05;99070.78;;;23.70;48.22
4410;BME280;2218;51.408;7.208;2022-09-09T10:19:37;99073.13;;;23.73;48.45
4410;BME280;2218;51.408;7.208;2022-09-09T10:22:26;99077.16;;;23.77;47.87
4410;BME280;2218;51.408;7.208;2022-09-09T10:25:22;99070.56;;;23.54;48.58
4410;BME280;2218;51.408;7.208;2022-09-09T10:28:23;99069.09;;;23.69;48.44
4410;BME280;2218;51.408;7.208;2022-09-09T10:31:12;99071.53;;;23.80;47.69
4410;BME280;2218;51.408;7.208;2022-09-09T10:33:50;99063.94;;;23.85;47.68
4410;BME280;2218;51.408;7.208;2022-09-09T10:36:22;99067.00;;;23.90;47.30
4410;BME280;2218;51.408;7.208;2022-09-09T10:38:59;99070.34;;;23.92;47.18
4410;BME280;2218;51.408;7.208;2022-09-09T10:41:49;99072.53;;;23.97;46.96
4410;BME280;2218;51.408;7.208;2022-09-09T10:44:47;99069.88;;;23.97;47.18
4410;BME280;2218;51.408;7.208;2022-09-09T10:48:00;99068.06;;;23.97;47.60
4410;BME280;2218;51.408;7.208;2022-09-09T10:50:52;99055.47;;;23.99;47.39
4410;BME280;2218;51.408;7.208;2022-09-09T10:53:35;99057.81;;;24.03;47.48
4410;BME280;2218;51.408;7.208;2022-09-09T10:56:07;99062.13;;;24.04;47.31
4410;BME280;2218;51.408;7.208;2022-09-09T10:58:42;99047.88;;;24.05;47.31
4410;BME280;2218;51.408;7.208;2022-09-09T11:01:18;99051.19;;;24.07;47.29
4410;BME280;2218;51.408;7.208;2022-09-09T11:03:56;99059.84;;;24.09;47.73
4410;BME280;2218;51.408;7.208;2022-09-09T11:06:32;99053.72;;;24.08;47.86
4410;BME280;2218;51.408;7.208;2022-09-09T11:09:02;99051.06;;;24.08;47.53
4410;BME280;2218;51.408;7.208;2022-09-09T11:11:37;99056.22;;;24.10;48.02
4410;BME280;2218;51.408;7.208;2022-09-09T11:14:14;99053.56;;;24.10;47.68
4410;BME280;2218;51.408;7.208;2022-09-09T11:16:50;99061.22;;;24.13;47.47
4410;BME280;2218;51.408;7.208;2022-09-09T11:19:26;99057.75;;;24.12;46.96
4410;BME280;2218;51.408;7.208;2022-09-09T11:21:57;99058.56;;;24.13;46.79
4410;BME280;2218;51.408;7.208;2022-09-09T11:24:31;99046.97;;;24.14;47.08
4410;BME280;2218;51.408;7.208;2022-09-09T11:27:08;99052.94;;;24.16;47.81
4410;BME280;2218;51.408;7.208;2022-09-09T11:30:18;99044.13;;;24.15;47.89
4410;BME280;2218;51.408;7.208;2022-09-09T11:36:32;99042.47;;;24.14;48.68
4410;BME280;2218;51.408;7.208;2022-09-09T11:39:31;99036.34;;;24.14;48.43
4410;BME280;2218;51.408;7.208;2022-09-09T11:42:07;99030.19;;;24.13;48.90
4410;BME280;2218;51.408;7.208;2022-09-09T11:44:35;99036.50;;;24.12;48.61
4410;BME280;2218;51.408;7.208;2022-09-09T11:47:02;99029.38;;;24.13;48.77
4410;BME280;2218;51.408;7.208;2022-09-09T11:49:40;99035.69;;;24.12;48.70
4410;BME280;2218;51.408;7.208;2022-09-09T11:52:21;99032.03;;;24.13;48.52
4410;BME280;2218;51.408;7.208;2022-09-09T11:54:51;99028.53;;;24.12;48.66
4410;BME280;2218;51.408;7.208;2022-09-09T11:57:29;99036.50;;;24.12;49.13
4410;BME280;2218;51.408;7.208;2022-09-09T11:59:57;99033.03;;;24.12;49.30
4410;BME280;2218;51.408;7.208;2022-09-09T12:02:27;99040.13;;;24.11;48.93
4410;BME280;2218;51.408;7.208;2022-09-09T12:05:01;99032.31;;;24.10;49.04
4410;BME280;2218;51.408;7.208;2022-09-09T12:07:37;99039.47;;;24.09;49.37
4410;BME280;2218;51.408;7.208;2022-09-09T12:10:23;99037.78;;;24.08;49.05
4410;BME280;2218;51.408;7.208;2022-09-09T12:12:52;99052.88;;;24.08;49.37
4410;BME280;2218;51.408;7.208;2022-09-09T12:15:29;99061.81;;;24.07;49.59
4410;BME280;2218;51.408;7.208;2022-09-09T12:17:58;99067.00;;;24.08;49.49
4410;BME280;2218;51.408;7.208;2022-09-09T12:20:33;99066.16;;;24.08;49.73
4410;BME280;2218;51.408;7.208;2022-09-09T12:23:36;99068.81;;;24.08;49.48
4410;BME280;2218;51.408;7.208;2022-09-09T12:26:26;99074.13;;;24.08;49.29
4410;BME280;2218;51.408;7.208;2022-09-09T12:29:06;99074.13;;;24.08;49.35
4410;BME280;2218;51.408;7.208;2022-09-09T12:31:44;99072.44;;;24.07;49.46
4410;BME280;2218;51.408;7.208;2022-09-09T12:34:17;99068.81;;;24.08;49.58
4410;BME280;2218;51.408;7.208;2022-09-09T12:36:55;99075.78;;;24.09;49.46
4410;BME280;2218;51.408;7.208;2022-09-09T12:39:33;99067.13;;;24.07;49.73
4410;BME280;2218;51.408;7.208;2022-09-09T12:42:02;99060.97;;;24.06;49.50
4410;BME280;2218;51.408;7.208;2022-09-09T12:44:30;99057.50;;;24.06;49.65
4410;BME280;2218;51.408;7.208;2022-09-09T12:47:01;99060.16;;;24.06;49.82
4410;BME280;2218;51.408;7.208;2022-09-09T12:49:33;99060.16;;;24.06;50.05
4410;BME280;2218;51.408;7.208;2022-09-09T12:52:04;99067.28;;;24.05;50.00
4410;BME280;2218;51.408;7.208;2022-09-09T12:54:36;99072.75;;;24.04;49.93
4410;BME280;2218;51.408;7.208;2022-09-09T12:57:09;99078.06;;;24.04;50.12
4410;BME280;2218;51.408;7.208;2022-09-09T12:59:40;99069.41;;;24.02;49.85
4410;BME280;2218;51.408;7.208;2022-09-09T13:02:19;99059.66;;;24.02;49.77
4410;BME280;2218;51.408;7.208;2022-09-09T13:04:47;99065.09;;;24.01;49.91
4410;BME280;2218;51.408;7.208;2022-09-09T13:07:17;99056.84;;;24.04;49.91
4410;BME280;2218;51.408;7.208;2022-09-09T13:09:47;99052.34;;;24.04;50.19
4410;BME280;2218;51.408;7.208;2022-09-09T13:12:19;99051.34;;;24.05;50.09
4410;BME280;2218;51.408;7.208;2022-09-09T13:14:49;99045.88;;;24.07;49.87
4410;BME280;2218;51.408;7.208;2022-09-09T13:17:24;99036.97;;;24.08;50.30
4410;BME280;2218;51.408;7.208;2022-09-09T13:19:52;99029.13;;;24.06;50.00
4410;BME280;2218;51.408;7.208;2022-09-09T13:22:28;99031.94;;;24.05;50.33
4410;BME280;2218;51.408;7.208;2022-09-09T13:25:17;99028.63;;;24.03;50.14
4410;BME280;2218;51.408;7.208;2022-09-09T13:27:55;99023.31;;;24.03;50.17
4410;BME280;2218;51.408;7.208;2022-09-09T13:30:26;99036.44;;;24.04;50.15
4410;BME280;2218;51.408;7.208;2022-09-09T13:33:20;99038.25;;;24.04;50.10
4410;BME280;2218;51.408;7.208;2022-09-09T13:35:52;99032.94;;;24.04;50.17
4410;BME280;2218;51.408;7.208;2022-09-09T13:38:21;99035.75;;;24.02;50.11
4410;BME280;2218;51.408;7.208;2022-09-09T13:41:02;99038.41;;;24.02;50.34
4410;BME280;2218;51.408;7.208;2022-09-09T13:43:34;99036.72;;;24.01;50.52
4410;BME280;2218;51.408;7.208;2022-09-09T13:46:06;99043.03;;;24.00;50.46
4410;BME280;2218;51.408;7.208;2022-09-09T13:48:54;99061.59;;;24.00;50.44
4410;BME280;2218;51.408;7.208;2022-09-09T13:51:33;99063.44;;;23.99;50.44
4410;BME280;2218;51.408;7.208;2022-09-09T13:54:03;99068.72;;;23.99;50.36
4410;BME280;2218;51.408;7.208;2022-09-09T13:56:33;99069.72;;;23.98;50.53
4410;BME280;2218;51.408;7.208;2022-09-09T13:59:01;99063.72;;;23.96;50.21
4410;BME280;2218;51.408;7.208;2022-09-09T14:01:28;99060.09;;;23.97;50.45
4410;BME280;2218;51.408;7.208;2022-09-09T14:03:57;99059.28;;;23.97;50.48